El Vendrell, Spain
Current Conditions -  °F | °C
As of 3:00 PM on Tuesday 27 Jan 2015 (Local Time) from LERS Reporting Station
Few Clouds Few Clouds  
Wind Chill: 57°   Ceiling: Unl
Heat Index: 57°   Visibility: 6mi
Dew Point: 41°   Wind: 13mph
Humidity: 55%   Direction: 280°W
Pressure: 30.09"   Gusts: 25mph
Location:  41.22°N, 1.53°E
Report Text: LERS 271400Z 28011G22KT 240V330 9999 FEW025 14/05 Q1019
Loading
Personal Weather Stations






























Interactive Weather Map New forecast layout! Learn more

10-Day Weather Forecast

Advertisements
Track Severe Weather on mobile